createdAt,value
2022-07-31T00:00:19.170Z,75.36
2022-07-31T00:02:46.638Z,75.16
2022-07-31T00:05:13.071Z,74.98
2022-07-31T00:07:39.832Z,74.27
2022-07-31T00:10:07.478Z,73.92
2022-07-31T00:12:37.209Z,74.17
2022-07-31T00:15:08.361Z,74.15
2022-07-31T00:17:34.768Z,74.38
2022-07-31T00:20:01.938Z,74.77
2022-07-31T00:22:28.441Z,74.56
2022-07-31T00:24:54.909Z,74.90
2022-07-31T00:27:21.482Z,74.66
2022-07-31T00:29:47.931Z,75.03
2022-07-31T00:32:14.340Z,74.68
2022-07-31T00:34:42.346Z,74.45
2022-07-31T00:37:09.972Z,74.95
2022-07-31T00:39:36.461Z,74.97
2022-07-31T00:42:03.044Z,74.80
2022-07-31T00:44:29.709Z,74.54
2022-07-31T00:46:57.862Z,75.06
2022-07-31T00:49:24.547Z,75.01
2022-07-31T00:51:51.781Z,74.58
2022-07-31T00:54:22.319Z,75.13
2022-07-31T00:56:49.338Z,74.99
2022-07-31T00:59:15.864Z,75.09
2022-07-31T01:01:44.338Z,75.44
2022-07-31T01:04:15.462Z,75.41
2022-07-31T01:06:42.761Z,75.69
2022-07-31T01:09:09.401Z,76.02
2022-07-31T01:11:48.149Z,76.06
2022-07-31T01:14:19.778Z,76.05
2022-07-31T01:16:49.719Z,76.46
2022-07-31T01:19:37.899Z,76.28
2022-07-31T01:22:33.654Z,76.85
2022-07-31T01:25:23.252Z,76.86
2022-07-31T01:27:52.575Z,77.20
2022-07-31T01:30:24.797Z,76.75
2022-07-31T01:32:57.921Z,76.48
2022-07-31T01:35:28.363Z,76.56
2022-07-31T01:38:09.984Z,77.18
2022-07-31T01:40:44.835Z,76.97
2022-07-31T01:43:22.322Z,76.88
2022-07-31T01:45:56.213Z,77.14
2022-07-31T01:48:23.675Z,76.90
2022-07-31T01:50:52.640Z,77.08
2022-07-31T01:53:22.706Z,77.22
2022-07-31T01:56:02.086Z,76.90
2022-07-31T01:58:34.872Z,77.13
2022-07-31T02:01:03.834Z,77.62
2022-07-31T02:03:43.921Z,77.67
2022-07-31T02:06:14.862Z,77.95
2022-07-31T02:08:43.789Z,78.13
2022-07-31T02:11:10.769Z,78.18
2022-07-31T02:13:38.000Z,78.58
2022-07-31T02:16:05.648Z,78.60
2022-07-31T02:18:33.968Z,78.43
2022-07-31T02:21:00.798Z,78.61
2022-07-31T02:23:27.220Z,79.01
2022-07-31T02:25:54.432Z,78.71
2022-07-31T02:28:22.477Z,79.34
2022-07-31T02:30:51.684Z,79.38
2022-07-31T02:33:21.972Z,79.03
2022-07-31T02:35:50.315Z,79.97
2022-07-31T02:38:23.322Z,80.09
2022-07-31T02:40:57.806Z,79.85
2022-07-31T02:43:26.590Z,80.02
2022-07-31T02:45:54.553Z,79.76
2022-07-31T02:48:21.576Z,79.63
2022-07-31T02:50:49.160Z,80.01
2022-07-31T02:53:15.635Z,79.80
2022-07-31T02:55:44.797Z,79.60
2022-07-31T02:58:11.415Z,79.67
2022-07-31T03:00:38.006Z,80.05
2022-07-31T03:03:04.507Z,80.55
2022-07-31T03:05:31.351Z,80.32
2022-07-31T03:07:57.740Z,80.67
2022-07-31T03:10:24.118Z,80.62
2022-07-31T03:12:54.281Z,80.64
2022-07-31T03:15:23.560Z,80.36
2022-07-31T03:17:51.151Z,80.35
2022-07-31T03:20:18.281Z,79.72
2022-07-31T03:22:45.699Z,80.25
2022-07-31T03:25:20.065Z,79.64
2022-07-31T03:27:55.885Z,79.53
2022-07-31T03:30:25.156Z,79.10
2022-07-31T03:32:58.027Z,78.17
2022-07-31T03:35:24.888Z,78.82
2022-07-31T03:37:52.189Z,79.11
2022-07-31T03:40:18.958Z,79.33
2022-07-31T03:42:47.537Z,80.03
2022-07-31T03:45:14.724Z,81.21
2022-07-31T03:47:41.161Z,82.88
2022-07-31T03:50:08.792Z,83.38
2022-07-31T03:52:35.991Z,84.26
2022-07-31T03:55:02.867Z,84.16
2022-07-31T03:57:31.431Z,85.76
2022-07-31T04:00:02.484Z,86.55
2022-07-31T04:02:29.921Z,86.91
2022-07-31T04:04:58.511Z,86.79
2022-07-31T04:07:25.096Z,86.53
2022-07-31T04:09:51.856Z,86.14
2022-07-31T04:12:18.323Z,85.40
2022-07-31T04:14:45.114Z,84.92
2022-07-31T04:17:11.487Z,84.93
2022-07-31T04:19:38.017Z,84.31
2022-07-31T04:22:04.952Z,82.98
2022-07-31T04:24:31.636Z,82.53
2022-07-31T04:26:58.421Z,81.29
2022-07-31T04:29:28.564Z,81.30
2022-07-31T04:31:55.670Z,81.03
2022-07-31T04:34:22.206Z,80.88
2022-07-31T04:36:48.710Z,80.58
2022-07-31T04:39:15.130Z,80.41
2022-07-31T04:41:41.527Z,80.37
2022-07-31T04:44:07.932Z,80.05
2022-07-31T04:46:34.268Z,79.97
2022-07-31T04:49:00.738Z,78.67
2022-07-31T04:51:27.165Z,78.53
2022-07-31T04:53:53.624Z,80.06
2022-07-31T04:56:42.086Z,78.88
2022-07-31T04:59:13.737Z,78.13
2022-07-31T05:01:41.408Z,77.78
2022-07-31T05:04:09.202Z,78.10
2022-07-31T05:06:38.436Z,77.23
2022-07-31T05:09:09.500Z,76.93
2022-07-31T05:11:37.985Z,76.12
2022-07-31T05:14:06.237Z,75.77
2022-07-31T05:16:32.987Z,75.01
2022-07-31T05:18:59.790Z,74.95
2022-07-31T05:21:30.537Z,75.14
2022-07-31T05:23:57.679Z,74.29
2022-07-31T05:26:24.776Z,74.90
2022-07-31T05:28:58.400Z,74.81
2022-07-31T05:31:26.096Z,74.43
2022-07-31T05:33:52.512Z,75.02
2022-07-31T05:36:20.885Z,74.79
2022-07-31T05:38:47.671Z,74.80
2022-07-31T05:41:14.195Z,75.10
2022-07-31T05:43:40.609Z,74.27
2022-07-31T05:46:07.438Z,72.79
2022-07-31T05:48:33.870Z,72.59
2022-07-31T05:51:05.093Z,71.54
2022-07-31T05:53:32.041Z,70.88
2022-07-31T05:55:58.382Z,66.46
2022-07-31T05:58:24.807Z,61.60
2022-07-31T06:00:51.300Z,60.17
2022-07-31T06:03:24.088Z,60.99
2022-07-31T06:05:51.935Z,62.26
2022-07-31T06:08:18.305Z,63.42
2022-07-31T06:10:45.082Z,63.70
2022-07-31T06:13:12.358Z,64.60
2022-07-31T06:15:39.141Z,64.26
2022-07-31T06:18:09.019Z,64.30
2022-07-31T06:20:35.513Z,63.66
2022-07-31T06:23:20.007Z,63.21
2022-07-31T06:25:52.510Z,64.00
2022-07-31T06:28:19.071Z,64.83
2022-07-31T06:30:46.612Z,65.78
2022-07-31T06:33:21.998Z,65.87
2022-07-31T06:35:59.385Z,66.97
2022-07-31T06:38:25.830Z,66.71
2022-07-31T06:40:52.190Z,67.47
2022-07-31T06:43:18.621Z,67.61
2022-07-31T06:45:52.074Z,68.48
2022-07-31T06:48:18.920Z,67.62
2022-07-31T06:50:45.412Z,68.63
2022-07-31T06:53:11.846Z,69.05
2022-07-31T06:55:38.209Z,68.57
2022-07-31T06:58:10.612Z,69.76
2022-07-31T07:00:37.273Z,69.55
2022-07-31T07:03:03.681Z,69.52
2022-07-31T07:05:30.176Z,69.97
2022-07-31T07:07:56.561Z,70.24
2022-07-31T07:10:23.008Z,70.45
2022-07-31T07:12:49.487Z,71.17
2022-07-31T07:15:15.938Z,71.56
2022-07-31T07:17:42.308Z,71.87
2022-07-31T07:20:09.132Z,71.51
2022-07-31T07:22:35.509Z,72.02
2022-07-31T07:25:02.002Z,71.29
2022-07-31T07:27:28.458Z,70.26
2022-07-31T07:29:55.724Z,69.67
2022-07-31T07:32:22.082Z,70.53
2022-07-31T07:34:48.586Z,70.37
2022-07-31T07:37:27.283Z,69.50
2022-07-31T07:39:53.681Z,68.29
2022-07-31T07:42:20.135Z,68.40
2022-07-31T07:44:46.610Z,68.98
2022-07-31T07:47:13.370Z,69.58
2022-07-31T07:49:39.729Z,69.00
2022-07-31T07:52:06.302Z,69.08
2022-07-31T07:54:32.714Z,70.52
2022-07-31T07:56:59.348Z,70.07
2022-07-31T07:59:25.773Z,69.88
2022-07-31T08:01:52.144Z,68.59
2022-07-31T08:04:18.685Z,67.44
2022-07-31T08:06:45.102Z,66.94
2022-07-31T08:09:11.550Z,65.91
2022-07-31T08:11:37.914Z,66.83
2022-07-31T08:14:04.324Z,66.62
2022-07-31T08:16:32.438Z,66.02
2022-07-31T08:18:58.870Z,68.52
2022-07-31T08:21:25.326Z,68.62
2022-07-31T08:23:52.708Z,69.42
2022-07-31T08:26:19.221Z,71.68
2022-07-31T08:28:50.328Z,69.46
2022-07-31T08:31:19.178Z,65.38
2022-07-31T08:33:45.753Z,63.46
2022-07-31T08:36:12.517Z,64.66
2022-07-31T08:38:39.385Z,63.60
2022-07-31T08:41:06.217Z,63.12
2022-07-31T08:44:02.254Z,62.67
2022-07-31T08:46:21.105Z,62.01
2022-07-31T08:48:50.630Z,60.67
2022-07-31T08:51:17.626Z,59.69
2022-07-31T08:53:44.709Z,59.49
2022-07-31T08:56:11.829Z,58.18
2022-07-31T08:58:39.847Z,56.99
2022-07-31T09:01:08.102Z,59.29
2022-07-31T09:03:36.010Z,59.42
2022-07-31T09:06:02.543Z,57.81
2022-07-31T09:08:35.972Z,57.25
2022-07-31T09:11:07.605Z,56.03
2022-07-31T09:13:34.815Z,57.24
2022-07-31T09:16:02.128Z,56.70
2022-07-31T09:18:28.585Z,56.58
2022-07-31T09:21:00.417Z,57.13
2022-07-31T09:23:29.110Z,57.07
2022-07-31T09:26:05.951Z,57.33
2022-07-31T09:28:44.934Z,56.15
2022-07-31T09:31:13.766Z,56.35
2022-07-31T09:33:45.814Z,56.28
2022-07-31T09:36:13.194Z,55.33
2022-07-31T09:38:43.221Z,55.70
2022-07-31T09:41:26.786Z,57.18
2022-07-31T09:44:00.975Z,56.25
2022-07-31T09:46:37.939Z,55.52
2022-07-31T09:49:04.442Z,55.21
2022-07-31T09:51:42.050Z,54.18
2022-07-31T09:54:18.969Z,55.25
2022-07-31T09:56:46.842Z,55.87
2022-07-31T09:59:13.414Z,55.45
2022-07-31T10:01:41.274Z,56.68
2022-07-31T10:04:08.547Z,54.97
2022-07-31T10:06:35.698Z,55.44
2022-07-31T10:09:04.849Z,54.72
2022-07-31T10:11:32.297Z,56.35
2022-07-31T10:14:03.797Z,54.79
2022-07-31T10:16:35.698Z,53.54
2022-07-31T10:19:03.745Z,52.73
2022-07-31T10:21:37.810Z,52.49
2022-07-31T10:24:05.442Z,53.26
2022-07-31T10:26:58.691Z,53.37
2022-07-31T10:29:19.692Z,52.39
2022-07-31T10:31:46.336Z,52.54
2022-07-31T10:34:15.817Z,51.99
2022-07-31T10:36:45.279Z,50.84
2022-07-31T10:39:35.662Z,52.51
2022-07-31T10:42:19.467Z,49.82
2022-07-31T10:45:02.883Z,49.43
2022-07-31T10:47:29.435Z,50.58
2022-07-31T10:49:55.866Z,49.30
2022-07-31T10:52:34.533Z,49.86
2022-07-31T10:55:01.815Z,49.98
2022-07-31T10:57:33.763Z,50.60
2022-07-31T11:00:21.168Z,49.36
2022-07-31T11:02:47.701Z,48.79
2022-07-31T11:05:21.658Z,48.42
2022-07-31T11:07:59.656Z,48.12
2022-07-31T11:10:26.193Z,47.39
2022-07-31T11:13:04.867Z,47.81
2022-07-31T11:15:31.707Z,50.96
2022-07-31T11:18:24.057Z,50.34
2022-07-31T11:20:48.494Z,50.46
2022-07-31T11:23:16.791Z,50.16
2022-07-31T11:25:46.895Z,50.21
2022-07-31T11:28:27.329Z,49.68
2022-07-31T11:31:02.546Z,49.40
2022-07-31T11:33:42.081Z,48.79
2022-07-31T11:36:09.411Z,49.19
2022-07-31T11:38:36.702Z,49.76
2022-07-31T11:41:05.897Z,49.39
2022-07-31T11:43:34.439Z,50.53
2022-07-31T11:46:02.511Z,49.80
2022-07-31T11:48:38.049Z,48.72
2022-07-31T11:51:06.019Z,48.14
2022-07-31T11:53:39.721Z,47.14
2022-07-31T11:56:06.214Z,46.29
2022-07-31T11:58:33.719Z,46.20
2022-07-31T12:01:02.005Z,45.43
2022-07-31T12:03:36.524Z,45.54
2022-07-31T12:06:05.894Z,44.75
2022-07-31T12:08:32.979Z,46.24
2022-07-31T12:11:01.376Z,45.95
2022-07-31T12:13:29.362Z,44.37
2022-07-31T12:15:55.679Z,45.83
2022-07-31T12:18:22.382Z,46.11
2022-07-31T12:20:54.121Z,45.93
2022-07-31T12:23:40.439Z,46.00
2022-07-31T12:26:07.054Z,46.12
2022-07-31T12:28:33.416Z,46.34
2022-07-31T12:31:00.279Z,46.80
2022-07-31T12:33:27.664Z,46.28
2022-07-31T12:35:57.061Z,46.88
2022-07-31T12:38:47.555Z,46.71
2022-07-31T12:41:14.488Z,48.15
2022-07-31T12:43:51.050Z,48.64
2022-07-31T12:46:34.743Z,47.40
2022-07-31T12:49:01.198Z,46.90
2022-07-31T12:51:45.181Z,47.36
2022-07-31T12:54:16.942Z,46.69
2022-07-31T12:56:44.793Z,47.07
2022-07-31T12:59:11.720Z,47.10
2022-07-31T13:01:38.363Z,47.63
2022-07-31T13:04:07.627Z,46.90
2022-07-31T13:06:34.912Z,47.12
2022-07-31T13:09:01.290Z,46.80
2022-07-31T13:11:30.590Z,47.30
2022-07-31T13:14:13.514Z,46.78
2022-07-31T13:16:39.890Z,46.87
2022-07-31T13:19:07.857Z,47.15
2022-07-31T13:21:48.350Z,46.63
2022-07-31T13:24:17.628Z,46.80
2022-07-31T13:26:45.253Z,46.00
2022-07-31T13:29:12.142Z,45.97
2022-07-31T13:31:39.137Z,46.42
2022-07-31T13:34:05.694Z,46.51
2022-07-31T13:36:36.001Z,48.18
2022-07-31T13:39:05.494Z,48.68
2022-07-31T13:41:34.109Z,48.35
2022-07-31T13:44:01.074Z,48.94
2022-07-31T13:46:28.240Z,50.01
2022-07-31T13:48:56.273Z,49.63
2022-07-31T13:51:28.717Z,49.97
2022-07-31T13:53:55.767Z,49.59
2022-07-31T13:56:39.300Z,49.00
2022-07-31T13:59:08.782Z,48.18
2022-07-31T14:02:04.574Z,47.51
2022-07-31T14:04:23.623Z,47.86
2022-07-31T14:06:50.581Z,47.69
2022-07-31T14:09:18.281Z,47.02
2022-07-31T14:11:44.685Z,46.40
2022-07-31T14:14:12.389Z,48.17
2022-07-31T14:16:39.527Z,48.10
2022-07-31T14:19:05.953Z,48.33
2022-07-31T14:21:34.013Z,47.46
2022-07-31T14:24:00.480Z,47.51
2022-07-31T14:26:26.910Z,47.28
2022-07-31T14:28:53.326Z,47.55
2022-07-31T14:31:19.799Z,47.46
2022-07-31T14:33:46.257Z,47.93
2022-07-31T14:36:12.675Z,47.91
2022-07-31T14:38:39.062Z,47.70
2022-07-31T14:41:07.023Z,48.46
2022-07-31T14:43:33.621Z,48.72
2022-07-31T14:46:00.021Z,48.36
2022-07-31T14:48:27.272Z,48.09
2022-07-31T14:50:53.728Z,48.01
2022-07-31T14:53:20.132Z,48.02
2022-07-31T14:55:46.514Z,47.30
2022-07-31T14:58:12.938Z,47.55
2022-07-31T15:00:39.364Z,46.49
2022-07-31T15:03:05.788Z,47.95
2022-07-31T15:06:41.288Z,48.04
2022-07-31T15:08:18.537Z,47.56
2022-07-31T15:10:44.926Z,45.97
2022-07-31T15:13:13.148Z,45.84
2022-07-31T15:15:39.603Z,45.91
2022-07-31T15:18:06.071Z,46.62
2022-07-31T15:20:34.271Z,48.12
2022-07-31T15:23:01.880Z,47.65
2022-07-31T15:25:28.377Z,46.13
2022-07-31T15:27:54.778Z,45.88
2022-07-31T15:30:21.606Z,46.44
2022-07-31T15:32:48.109Z,46.78
2022-07-31T15:35:14.634Z,46.59
2022-07-31T15:37:43.930Z,47.26
2022-07-31T15:40:12.871Z,47.45
2022-07-31T15:42:41.619Z,47.58
2022-07-31T15:45:10.718Z,47.49
2022-07-31T15:47:38.334Z,45.80
2022-07-31T15:50:06.365Z,46.56
2022-07-31T15:52:32.928Z,46.30
2022-07-31T15:54:59.469Z,46.45
2022-07-31T15:57:25.869Z,47.83
2022-07-31T15:59:54.413Z,48.61
2022-07-31T16:02:22.500Z,48.58
2022-07-31T16:04:52.886Z,49.05
2022-07-31T16:08:29.515Z,48.84
2022-07-31T16:10:16.652Z,48.27
2022-07-31T16:12:48.446Z,48.88
2022-07-31T16:15:16.762Z,48.74
2022-07-31T16:17:44.171Z,50.24
2022-07-31T16:20:25.367Z,51.13
2022-07-31T16:23:00.865Z,50.99
2022-07-31T16:25:32.032Z,51.12
2022-07-31T16:28:00.966Z,52.70
2022-07-31T16:30:27.451Z,52.29
2022-07-31T16:32:54.644Z,52.17
2022-07-31T16:35:21.261Z,52.53
2022-07-31T16:37:52.519Z,52.83
2022-07-31T16:40:30.047Z,53.65
2022-07-31T16:43:47.206Z,53.55
2022-07-31T16:45:55.326Z,53.30
2022-07-31T16:48:22.131Z,53.41
2022-07-31T16:50:53.342Z,53.59
2022-07-31T16:54:11.135Z,53.39
2022-07-31T16:56:11.893Z,53.14
2022-07-31T16:58:38.375Z,52.47
2022-07-31T17:01:05.181Z,53.42
2022-07-31T17:04:00.443Z,53.07
2022-07-31T17:06:36.647Z,53.38
2022-07-31T17:09:15.346Z,53.70
2022-07-31T17:11:48.484Z,54.14
2022-07-31T17:14:16.617Z,54.37
2022-07-31T17:16:47.208Z,54.82
2022-07-31T17:19:15.855Z,53.88
2022-07-31T17:21:44.422Z,53.40
2022-07-31T17:24:13.443Z,52.91
2022-07-31T17:26:43.581Z,53.51
2022-07-31T17:29:09.953Z,54.51
2022-07-31T17:31:36.288Z,54.57
2022-07-31T17:34:07.240Z,55.61
2022-07-31T17:36:35.810Z,56.25
2022-07-31T17:39:02.246Z,57.19
2022-07-31T17:41:28.749Z,57.58
2022-07-31T17:43:55.133Z,57.16
2022-07-31T17:46:35.021Z,57.66
2022-07-31T17:49:09.020Z,58.18
2022-07-31T17:51:35.491Z,58.56
2022-07-31T17:54:02.159Z,59.25
2022-07-31T17:56:29.258Z,59.21
2022-07-31T17:59:03.571Z,59.08
2022-07-31T18:01:30.299Z,59.43
2022-07-31T18:03:57.743Z,59.31
2022-07-31T18:06:24.171Z,59.12
2022-07-31T18:08:50.620Z,59.27
2022-07-31T18:11:17.160Z,58.74
2022-07-31T18:13:48.750Z,59.28
2022-07-31T18:16:18.692Z,59.76
2022-07-31T18:18:45.297Z,59.80
2022-07-31T18:21:12.031Z,59.93
2022-07-31T18:23:43.643Z,59.86
2022-07-31T18:26:14.353Z,60.87
2022-07-31T18:28:40.816Z,61.17
2022-07-31T18:31:24.792Z,61.14
2022-07-31T18:33:53.796Z,61.75
2022-07-31T18:36:21.146Z,62.15
2022-07-31T18:38:47.879Z,61.90
2022-07-31T18:41:14.607Z,61.99
2022-07-31T18:43:40.991Z,62.52
2022-07-31T18:46:07.390Z,62.78
2022-07-31T18:48:34.280Z,62.85
2022-07-31T18:51:04.756Z,63.17
2022-07-31T18:53:31.946Z,63.51
2022-07-31T18:55:58.395Z,63.74
2022-07-31T18:58:24.802Z,64.09
2022-07-31T19:00:54.977Z,63.96
2022-07-31T19:03:22.065Z,64.73
2022-07-31T19:05:50.021Z,64.95
2022-07-31T19:08:16.441Z,65.74
2022-07-31T19:10:42.909Z,65.51
2022-07-31T19:13:09.385Z,66.34
2022-07-31T19:15:46.215Z,66.47
2022-07-31T19:18:12.705Z,66.74
2022-07-31T19:21:00.215Z,66.80
2022-07-31T19:23:27.472Z,67.09
2022-07-31T19:26:03.709Z,68.35
2022-07-31T19:28:35.033Z,70.45
2022-07-31T19:31:01.690Z,75.69
2022-07-31T19:33:28.204Z,78.37
2022-07-31T19:36:00.688Z,81.89
2022-07-31T19:38:28.755Z,84.85
2022-07-31T19:40:55.266Z,86.31
2022-07-31T19:43:21.994Z,86.95
2022-07-31T19:46:00.426Z,87.95
2022-07-31T19:48:36.394Z,90.30
2022-07-31T19:51:03.105Z,89.97
2022-07-31T19:53:30.148Z,91.25
2022-07-31T19:55:56.595Z,92.18
2022-07-31T19:58:23.035Z,91.56
2022-07-31T20:00:49.544Z,93.39
2022-07-31T20:03:16.057Z,97.17
2022-07-31T20:05:42.609Z,100.00
2022-07-31T20:08:10.215Z,100.00
2022-07-31T20:10:36.761Z,100.00
2022-07-31T20:13:03.214Z,100.00
2022-07-31T20:15:52.214Z,100.00
2022-07-31T20:18:26.839Z,100.00
2022-07-31T20:21:05.202Z,100.00
2022-07-31T20:23:34.036Z,100.00
2022-07-31T20:26:00.719Z,100.00
2022-07-31T20:28:27.147Z,100.00
2022-07-31T20:30:53.736Z,100.00
2022-07-31T20:33:20.203Z,100.00
2022-07-31T20:35:49.193Z,100.00
2022-07-31T20:38:22.530Z,100.00
2022-07-31T20:40:53.329Z,100.00
2022-07-31T20:43:26.021Z,100.00
2022-07-31T20:45:53.930Z,100.00
2022-07-31T20:48:31.434Z,100.00
2022-07-31T20:50:59.358Z,100.00
2022-07-31T20:53:26.031Z,100.00
2022-07-31T20:55:53.427Z,100.00
2022-07-31T20:58:21.881Z,100.00
2022-07-31T21:00:50.104Z,100.00
2022-07-31T21:03:17.253Z,100.00
2022-07-31T21:05:44.680Z,100.00
2022-07-31T21:08:11.852Z,100.00
2022-07-31T21:10:39.038Z,100.00
2022-07-31T21:13:05.485Z,100.00
2022-07-31T21:15:44.144Z,100.00
2022-07-31T21:18:15.545Z,100.00
2022-07-31T21:20:49.913Z,100.00
2022-07-31T21:23:23.028Z,100.00
2022-07-31T21:25:54.277Z,100.00
2022-07-31T21:28:21.756Z,100.00
2022-07-31T21:30:48.635Z,100.00
2022-07-31T21:33:15.327Z,100.00
2022-07-31T21:35:42.090Z,100.00
2022-07-31T21:38:12.587Z,100.00
2022-07-31T21:40:40.848Z,100.00
2022-07-31T21:43:08.370Z,100.00
2022-07-31T21:45:50.714Z,100.00
2022-07-31T21:48:23.758Z,100.00
2022-07-31T21:50:51.110Z,100.00
2022-07-31T21:53:17.528Z,100.00
2022-07-31T21:55:44.056Z,100.00
2022-07-31T21:58:11.033Z,100.00
2022-07-31T22:00:38.108Z,100.00
2022-07-31T22:03:05.531Z,100.00
2022-07-31T22:05:51.491Z,100.00
2022-07-31T22:08:18.416Z,100.00
2022-07-31T22:10:44.843Z,100.00
2022-07-31T22:13:11.433Z,100.00
2022-07-31T22:15:51.609Z,100.00
2022-07-31T22:18:26.188Z,100.00
2022-07-31T22:20:53.334Z,100.00
2022-07-31T22:23:19.958Z,100.00
2022-07-31T22:25:48.854Z,100.00
2022-07-31T22:28:18.817Z,100.00
2022-07-31T22:30:45.633Z,100.00
2022-07-31T22:33:12.270Z,100.00
2022-07-31T22:35:40.529Z,100.00
2022-07-31T22:38:07.838Z,100.00
2022-07-31T22:40:34.469Z,100.00
2022-07-31T22:43:02.609Z,100.00
2022-07-31T22:45:30.062Z,100.00
2022-07-31T22:47:57.345Z,100.00
2022-07-31T22:50:24.265Z,100.00
2022-07-31T22:52:51.881Z,100.00
2022-07-31T22:55:18.344Z,100.00
2022-07-31T22:57:45.021Z,100.00
2022-07-31T23:00:13.493Z,100.00
2022-07-31T23:02:41.060Z,100.00
2022-07-31T23:05:08.509Z,100.00
2022-07-31T23:07:34.882Z,100.00
2022-07-31T23:10:01.311Z,100.00
2022-07-31T23:12:28.511Z,100.00
2022-07-31T23:14:55.964Z,100.00
2022-07-31T23:17:23.597Z,100.00
2022-07-31T23:19:53.878Z,100.00
2022-07-31T23:22:20.828Z,100.00
2022-07-31T23:25:05.143Z,100.00
2022-07-31T23:27:33.124Z,100.00
2022-07-31T23:30:00.077Z,100.00
2022-07-31T23:32:28.026Z,100.00
2022-07-31T23:34:54.521Z,100.00
2022-07-31T23:37:20.959Z,100.00
2022-07-31T23:39:47.566Z,100.00
2022-07-31T23:42:32.689Z,100.00
2022-07-31T23:44:59.178Z,100.00
2022-07-31T23:47:44.409Z,100.00
2022-07-31T23:50:12.114Z,100.00
2022-07-31T23:52:38.542Z,100.00
2022-07-31T23:55:05.566Z,100.00
2022-07-31T23:57:34.714Z,100.00
